createdAt,value
2022-12-15T00:02:26.789Z,-2.60
2022-12-15T00:05:12.397Z,-2.40
2022-12-15T00:07:57.584Z,-2.60
2022-12-15T00:10:43.300Z,-2.50
2022-12-15T00:13:29.660Z,-2.50
2022-12-15T00:16:15.622Z,-2.90
2022-12-15T00:19:02.419Z,-2.90
2022-12-15T00:21:47.969Z,-2.70
2022-12-15T00:24:33.524Z,-2.50
2022-12-15T00:27:19.139Z,-2.60
2022-12-15T00:30:04.470Z,-2.40
2022-12-15T00:32:49.939Z,-2.40
2022-12-15T00:35:36.666Z,-2.50
2022-12-15T00:38:26.738Z,-2.50
2022-12-15T00:40:58.859Z,-2.50
2022-12-15T00:43:27.216Z,-2.40
2022-12-15T00:46:13.177Z,-2.30
2022-12-15T00:48:41.888Z,-2.30
2022-12-15T00:51:10.981Z,-2.50
2022-12-15T00:53:57.009Z,-2.50
2022-12-15T00:56:43.033Z,-2.50
2022-12-15T00:59:28.540Z,-2.40
2022-12-15T01:02:14.024Z,-2.40
2022-12-15T01:04:59.535Z,-2.40
2022-12-15T01:07:49.852Z,-2.40
2022-12-15T01:10:36.408Z,-2.40
2022-12-15T01:13:22.314Z,-2.50
2022-12-15T01:16:08.032Z,-2.40
2022-12-15T01:18:53.808Z,-2.60
2022-12-15T01:21:24.729Z,-2.40
2022-12-15T01:23:54.948Z,-2.60
2022-12-15T01:26:23.116Z,-2.50
2022-12-15T01:28:51.082Z,-2.70
2022-12-15T01:31:19.114Z,-2.50
2022-12-15T01:33:47.328Z,-2.70
2022-12-15T01:36:15.269Z,-2.70
2022-12-15T01:38:43.212Z,-2.80
2022-12-15T01:41:12.551Z,-2.70
2022-12-15T01:43:41.868Z,-2.70
2022-12-15T01:46:12.442Z,-2.70
2022-12-15T01:48:44.006Z,-2.70
2022-12-15T01:51:19.409Z,-2.60
2022-12-15T01:53:52.572Z,-2.80
2022-12-15T01:56:24.313Z,-2.80
2022-12-15T01:58:55.686Z,-2.70
2022-12-15T02:01:24.295Z,-2.60
2022-12-15T02:03:52.408Z,-2.60
2022-12-15T02:06:22.702Z,-2.50
2022-12-15T02:08:53.365Z,-2.70
2022-12-15T02:11:44.987Z,-2.70
2022-12-15T02:14:18.453Z,-2.70
2022-12-15T02:17:15.404Z,-2.70
2022-12-15T02:20:16.986Z,-2.50
2022-12-15T02:23:06.233Z,-2.40
2022-12-15T02:25:54.292Z,-2.40
2022-12-15T02:28:36.279Z,-2.40
2022-12-15T02:31:27.870Z,-2.50
2022-12-15T02:34:01.632Z,-2.40
2022-12-15T02:36:34.541Z,-2.50
2022-12-15T02:39:02.939Z,-2.60
2022-12-15T02:41:37.285Z,-2.60
2022-12-15T02:44:10.572Z,-2.50
2022-12-15T02:46:54.646Z,-2.60
2022-12-15T02:49:29.549Z,-2.50
2022-12-15T02:52:08.242Z,-2.50
2022-12-15T02:54:50.661Z,-2.50
2022-12-15T02:57:25.851Z,-2.50
2022-12-15T02:59:58.655Z,-2.40
2022-12-15T03:02:31.700Z,-2.40
2022-12-15T03:05:00.194Z,-2.50
2022-12-15T03:07:28.975Z,-2.50
2022-12-15T03:09:58.363Z,-2.50
2022-12-15T03:12:26.290Z,-2.50
2022-12-15T03:14:54.530Z,-2.40
2022-12-15T03:17:22.597Z,-2.40
2022-12-15T03:19:51.863Z,-2.50
2022-12-15T03:22:19.954Z,-2.70
2022-12-15T03:24:48.290Z,-2.50
2022-12-15T03:27:16.401Z,-2.50
2022-12-15T03:29:44.323Z,-2.70
2022-12-15T03:32:12.455Z,-2.70
2022-12-15T03:34:40.366Z,-2.80
2022-12-15T03:37:09.757Z,-2.60
2022-12-15T03:39:37.679Z,-2.80
2022-12-15T03:42:05.825Z,-2.80
2022-12-15T03:44:33.748Z,-2.90
2022-12-15T03:47:03.856Z,-2.80
2022-12-15T03:49:32.025Z,-2.80
2022-12-15T03:51:59.932Z,-2.90
2022-12-15T03:54:29.398Z,-2.80
2022-12-15T03:56:57.561Z,-2.60
2022-12-15T03:59:25.439Z,-2.60
2022-12-15T04:01:53.425Z,-2.60
2022-12-15T04:04:21.437Z,-2.80
2022-12-15T04:06:49.376Z,-2.90
2022-12-15T04:09:17.329Z,-2.90
2022-12-15T04:11:46.574Z,-2.90
2022-12-15T04:14:14.642Z,-2.90
2022-12-15T04:16:42.605Z,-2.90
2022-12-15T04:19:27.893Z,-2.90
2022-12-15T04:21:56.018Z,-3.10
2022-12-15T04:24:41.443Z,-3.00
2022-12-15T04:27:28.361Z,-3.30
2022-12-15T04:30:13.683Z,-3.30
2022-12-15T04:32:59.371Z,-3.30
2022-12-15T04:35:44.842Z,-3.20
2022-12-15T04:38:35.500Z,-3.20
2022-12-15T04:41:21.053Z,-3.10
2022-12-15T04:44:08.458Z,-2.90
2022-12-15T04:46:54.001Z,-2.90
2022-12-15T04:49:39.554Z,-3.10
2022-12-15T04:52:25.156Z,-3.00
2022-12-15T04:55:10.792Z,-2.90
2022-12-15T04:57:56.334Z,-2.80
2022-12-15T05:00:42.973Z,-3.00
2022-12-15T05:03:28.481Z,-3.10
2022-12-15T05:06:14.066Z,-3.10
2022-12-15T05:08:59.509Z,-3.00
2022-12-15T05:11:44.946Z,-3.10
2022-12-15T05:14:30.322Z,-3.10
2022-12-15T05:17:17.652Z,-3.20
2022-12-15T05:20:03.450Z,-3.30
2022-12-15T05:22:49.021Z,-3.00
2022-12-15T05:25:34.677Z,-3.00
2022-12-15T05:28:20.099Z,-3.00
2022-12-15T05:31:05.778Z,-3.00
2022-12-15T05:33:35.262Z,-3.10
2022-12-15T05:36:03.206Z,-3.00
2022-12-15T05:38:31.161Z,-3.10
2022-12-15T05:40:59.385Z,-2.90
2022-12-15T05:43:27.391Z,-2.90
2022-12-15T05:45:55.410Z,-3.00
2022-12-15T05:48:23.415Z,-2.90
2022-12-15T05:50:52.695Z,-2.80
2022-12-15T05:53:20.597Z,-2.90
2022-12-15T05:55:48.520Z,-2.90
2022-12-15T05:58:16.468Z,-2.90
2022-12-15T06:00:44.341Z,-2.90
2022-12-15T06:03:15.283Z,-2.90
2022-12-15T06:05:43.550Z,-2.90
2022-12-15T06:08:12.881Z,-2.90
2022-12-15T06:10:40.785Z,-2.90
2022-12-15T06:13:09.300Z,-3.00
2022-12-15T06:15:37.240Z,-3.10
2022-12-15T06:18:05.459Z,-3.10
2022-12-15T06:20:33.380Z,-3.10
2022-12-15T06:23:01.294Z,-3.00
2022-12-15T06:25:30.569Z,-2.90
2022-12-15T06:28:01.867Z,-3.00
2022-12-15T06:30:30.194Z,-3.00
2022-12-15T06:32:58.258Z,-3.10
2022-12-15T06:35:26.152Z,-3.00
2022-12-15T06:37:54.071Z,-3.30
2022-12-15T06:40:21.951Z,-3.30
2022-12-15T06:42:51.194Z,-3.20
2022-12-15T06:45:19.082Z,-3.20
2022-12-15T06:47:46.969Z,-3.20
2022-12-15T06:50:14.967Z,-3.10
2022-12-15T06:52:42.875Z,-3.20
2022-12-15T06:55:11.620Z,-3.30
2022-12-15T06:57:39.843Z,-3.50
2022-12-15T07:00:10.851Z,-3.40
2022-12-15T07:02:39.405Z,-3.40
2022-12-15T07:05:08.355Z,-3.30
2022-12-15T07:07:36.639Z,-3.20
2022-12-15T07:10:04.926Z,-3.10
2022-12-15T07:12:32.979Z,-3.00
2022-12-15T07:15:01.054Z,-3.30
2022-12-15T07:17:30.411Z,-3.30
2022-12-15T07:19:58.363Z,-3.20
2022-12-15T07:22:26.572Z,-3.10
2022-12-15T07:24:54.465Z,-3.00
2022-12-15T07:27:22.443Z,-2.90
2022-12-15T07:29:50.410Z,-3.00
2022-12-15T07:32:18.454Z,-3.00
2022-12-15T07:34:47.693Z,-2.90
2022-12-15T07:37:16.721Z,-3.00
2022-12-15T07:39:44.609Z,-3.10
2022-12-15T07:42:12.514Z,-3.10
2022-12-15T07:44:40.803Z,-2.90
2022-12-15T07:47:08.757Z,-2.70
2022-12-15T07:49:36.686Z,-2.70
2022-12-15T07:52:06.212Z,-2.70
2022-12-15T07:54:34.460Z,-2.70
2022-12-15T07:57:02.747Z,-2.70
2022-12-15T07:59:30.636Z,-2.60
2022-12-15T08:02:00.588Z,-2.60
2022-12-15T08:04:28.741Z,-2.50
2022-12-15T08:06:56.763Z,-2.40
2022-12-15T08:09:26.394Z,-2.30
2022-12-15T08:11:54.313Z,-2.20
2022-12-15T08:14:22.527Z,-2.40
2022-12-15T08:16:50.905Z,-2.50
2022-12-15T08:19:19.087Z,-2.30
2022-12-15T08:21:47.270Z,-2.30
2022-12-15T08:24:16.519Z,-2.40
2022-12-15T08:26:50.454Z,-2.40
2022-12-15T08:29:50.136Z,-2.70
2022-12-15T08:32:07.427Z,-2.60
2022-12-15T08:34:35.699Z,-2.40
2022-12-15T08:37:03.677Z,-2.30
2022-12-15T08:39:32.387Z,-2.50
2022-12-15T08:42:01.821Z,-2.60
2022-12-15T08:44:29.850Z,-2.60
2022-12-15T08:46:57.989Z,-2.60
2022-12-15T08:49:26.114Z,-2.40
2022-12-15T08:51:54.166Z,-2.30
2022-12-15T08:54:22.217Z,-2.00
2022-12-15T08:56:50.724Z,-2.10
2022-12-15T08:59:20.153Z,-2.10
2022-12-15T09:01:48.461Z,-2.20
2022-12-15T09:04:16.714Z,-2.20
2022-12-15T09:06:46.766Z,-2.00
2022-12-15T09:09:19.153Z,-1.90
2022-12-15T09:11:47.144Z,-2.00
2022-12-15T09:14:15.479Z,-1.90
2022-12-15T09:16:44.977Z,-1.70
2022-12-15T09:19:13.075Z,-1.90
2022-12-15T09:21:44.781Z,-1.70
2022-12-15T09:24:23.184Z,-1.50
2022-12-15T09:26:57.291Z,-1.40
2022-12-15T09:29:25.609Z,-1.40
2022-12-15T09:31:55.149Z,-1.50
2022-12-15T09:34:23.080Z,-1.50
2022-12-15T09:36:51.190Z,-1.50
2022-12-15T09:39:19.405Z,-1.40
2022-12-15T09:41:54.451Z,-1.30
2022-12-15T09:44:24.947Z,-1.40
2022-12-15T09:47:13.326Z,-1.70
2022-12-15T09:49:55.649Z,-1.50
2022-12-15T09:52:27.076Z,-1.30
2022-12-15T09:54:55.526Z,-1.50
2022-12-15T09:57:34.178Z,-1.40
2022-12-15T10:00:15.354Z,-1.20
2022-12-15T10:03:30.272Z,-1.40
2022-12-15T10:06:17.682Z,-1.20
2022-12-15T10:08:54.549Z,-1.00
2022-12-15T10:11:41.869Z,-0.80
2022-12-15T10:14:20.176Z,-1.00
2022-12-15T10:16:59.369Z,-1.00
2022-12-15T10:19:35.628Z,-0.90
2022-12-15T10:22:03.815Z,-0.80
2022-12-15T10:27:37.605Z,-1.00
2022-12-15T10:30:09.164Z,-0.70
2022-12-15T10:32:51.408Z,-0.70
2022-12-15T10:35:24.232Z,-0.90
2022-12-15T10:37:52.217Z,-0.80
2022-12-15T10:40:41.887Z,-1.10
2022-12-15T10:43:16.179Z,-1.30
2022-12-15T10:45:44.508Z,-1.10
2022-12-15T10:48:20.897Z,-0.90
2022-12-15T10:50:50.429Z,-0.70
2022-12-15T10:53:40.344Z,-0.60
2022-12-15T10:56:09.385Z,-0.80
2022-12-15T10:58:50.151Z,-0.80
2022-12-15T11:01:20.793Z,-0.70
2022-12-15T11:03:53.102Z,-0.80
2022-12-15T11:06:26.698Z,-1.00
2022-12-15T11:08:57.436Z,-0.80
2022-12-15T11:11:50.244Z,-0.80
2022-12-15T11:14:23.975Z,-0.60
2022-12-15T11:16:54.701Z,-0.70
2022-12-15T11:19:40.305Z,-0.70
2022-12-15T11:22:19.026Z,-0.40
2022-12-15T11:24:52.636Z,-0.40
2022-12-15T11:27:27.669Z,-0.30
2022-12-15T11:30:04.739Z,-0.40
2022-12-15T11:32:35.797Z,-0.40
2022-12-15T11:35:04.081Z,-0.20
2022-12-15T11:37:43.670Z,-0.10
2022-12-15T11:40:35.775Z,-0.20
2022-12-15T11:43:44.371Z,-0.30
2022-12-15T11:46:22.224Z,-0.60
2022-12-15T11:49:21.619Z,-1.00
2022-12-15T11:51:54.665Z,-1.00
2022-12-15T11:54:29.728Z,-1.20
2022-12-15T11:57:06.038Z,-1.10
2022-12-15T11:59:49.526Z,-1.20
2022-12-15T12:02:37.210Z,-1.00
2022-12-15T12:05:30.768Z,-0.80
2022-12-15T12:08:15.121Z,-0.90
2022-12-15T12:10:54.228Z,-0.80
2022-12-15T12:13:31.529Z,-0.70
2022-12-15T12:16:10.800Z,-0.60
2022-12-15T12:18:43.411Z,-0.50
2022-12-15T12:21:16.079Z,-0.80
2022-12-15T12:23:50.801Z,-0.90
2022-12-15T12:26:24.913Z,-0.80
2022-12-15T12:28:59.223Z,-0.90
2022-12-15T12:31:35.575Z,-0.80
2022-12-15T12:34:10.902Z,-0.80
2022-12-15T12:36:39.571Z,-0.80
2022-12-15T12:39:15.143Z,-0.60
2022-12-15T12:41:50.733Z,-0.50
2022-12-15T12:44:27.750Z,-0.60
2022-12-15T12:47:01.953Z,-0.50
2022-12-15T12:49:32.779Z,-0.40
2022-12-15T12:52:03.744Z,-0.40
2022-12-15T12:54:44.561Z,-0.40
2022-12-15T12:57:39.323Z,-0.40
2022-12-15T13:00:17.551Z,-0.40
2022-12-15T13:03:10.175Z,-0.50
2022-12-15T13:05:39.919Z,-0.70
2022-12-15T13:08:46.110Z,-0.70
2022-12-15T13:11:55.237Z,-0.70
2022-12-15T13:14:44.567Z,-0.40
2022-12-15T13:17:26.912Z,-0.30
2022-12-15T13:20:19.185Z,-0.30
2022-12-15T13:22:48.776Z,-0.50
2022-12-15T13:25:36.681Z,-0.70
2022-12-15T13:28:20.294Z,-0.70
2022-12-15T13:31:15.678Z,-0.60
2022-12-15T13:33:53.974Z,-0.80
2022-12-15T13:36:47.023Z,-0.80
2022-12-15T13:39:56.069Z,-0.80
2022-12-15T13:42:40.815Z,-0.90
2022-12-15T13:45:45.220Z,-0.80
2022-12-15T13:48:31.654Z,-0.80
2022-12-15T13:51:06.481Z,-1.10
2022-12-15T13:53:42.271Z,-1.00
2022-12-15T13:56:26.340Z,-1.10
2022-12-15T13:59:01.615Z,-1.00
2022-12-15T14:01:33.149Z,-1.00
2022-12-15T14:04:08.427Z,-1.00
2022-12-15T14:06:39.613Z,-0.80
2022-12-15T14:09:13.949Z,-0.80
2022-12-15T14:11:53.123Z,-0.70
2022-12-15T14:14:25.751Z,-0.70
2022-12-15T14:16:58.586Z,-0.80
2022-12-15T14:19:32.024Z,-0.80
2022-12-15T14:22:03.782Z,-1.00
2022-12-15T14:24:39.023Z,-0.90
2022-12-15T14:27:07.761Z,-0.90
2022-12-15T14:29:35.876Z,-0.90
2022-12-15T14:32:04.508Z,-0.90
2022-12-15T14:34:39.101Z,-0.90
2022-12-15T14:37:11.681Z,-0.80
2022-12-15T14:39:43.641Z,-0.80
2022-12-15T14:42:17.096Z,-0.80
2022-12-15T14:47:36.521Z,-0.90
2022-12-15T14:50:12.733Z,-0.90
2022-12-15T14:52:42.676Z,-0.80
2022-12-15T14:55:36.424Z,-0.80
2022-12-15T14:58:23.506Z,-0.90
2022-12-15T15:00:53.496Z,-0.90
2022-12-15T15:03:25.100Z,-1.00
2022-12-15T15:05:58.186Z,-1.40
2022-12-15T15:08:29.824Z,-1.40
2022-12-15T15:11:01.807Z,-1.30
2022-12-15T15:13:39.728Z,-1.30
2022-12-15T15:16:14.648Z,-1.30
2022-12-15T15:18:44.369Z,-1.40
2022-12-15T15:21:19.199Z,-1.30
2022-12-15T15:23:59.280Z,-1.20
2022-12-15T15:26:27.673Z,-1.40
2022-12-15T15:28:55.806Z,-1.40
2022-12-15T15:31:41.061Z,-1.30
2022-12-15T15:34:11.326Z,-1.30
2022-12-15T15:36:40.964Z,-1.50
2022-12-15T15:39:15.294Z,-1.50
2022-12-15T15:41:43.604Z,-1.50
2022-12-15T15:44:14.594Z,-1.60
2022-12-15T15:46:47.820Z,-1.50
2022-12-15T15:49:18.819Z,-1.50
2022-12-15T15:51:48.221Z,-1.40
2022-12-15T15:54:19.118Z,-1.50
2022-12-15T15:56:47.178Z,-1.50
2022-12-15T15:59:18.171Z,-1.50
2022-12-15T16:01:50.854Z,-1.50
2022-12-15T16:04:18.946Z,-1.70
2022-12-15T16:06:48.311Z,-1.80
2022-12-15T16:09:17.759Z,-1.80
2022-12-15T16:11:46.804Z,-1.70
2022-12-15T16:14:16.644Z,-1.60
2022-12-15T16:16:45.130Z,-1.60
2022-12-15T16:19:13.185Z,-1.50
2022-12-15T16:21:41.886Z,-1.50
2022-12-15T16:24:16.915Z,-1.60
2022-12-15T16:26:48.698Z,-1.80
2022-12-15T16:29:18.500Z,-1.70
2022-12-15T16:31:46.668Z,-1.70
2022-12-15T16:34:16.296Z,-2.00
2022-12-15T16:36:44.655Z,-2.00
2022-12-15T16:39:26.471Z,-1.80
2022-12-15T16:41:55.603Z,-1.80
2022-12-15T16:44:23.907Z,-1.80
2022-12-15T16:46:52.058Z,-1.70
2022-12-15T16:49:20.167Z,-1.70
2022-12-15T16:51:51.392Z,-1.70
2022-12-15T16:54:23.161Z,-1.70
2022-12-15T16:56:52.029Z,-1.80
2022-12-15T16:59:32.988Z,-1.80
2022-12-15T17:02:02.263Z,-1.80
2022-12-15T17:04:30.435Z,-1.80
2022-12-15T17:06:58.365Z,-1.80
2022-12-15T17:09:27.786Z,-1.80
2022-12-15T17:11:56.100Z,-1.80
2022-12-15T17:14:24.742Z,-1.80
2022-12-15T17:16:52.656Z,-1.80
2022-12-15T17:19:21.474Z,-1.90
2022-12-15T17:21:53.225Z,-1.80
2022-12-15T17:24:22.773Z,-2.00
2022-12-15T17:26:52.354Z,-2.10
2022-12-15T17:29:22.408Z,-2.10
2022-12-15T17:31:50.597Z,-2.00
2022-12-15T17:34:28.332Z,-2.00
2022-12-15T17:36:56.337Z,-2.00
2022-12-15T17:39:24.452Z,-2.20
2022-12-15T17:42:02.697Z,-2.20
2022-12-15T17:44:34.943Z,-2.40
2022-12-15T17:47:06.154Z,-2.50
2022-12-15T17:49:37.282Z,-2.40
2022-12-15T17:52:17.248Z,-2.30
2022-12-15T17:54:45.469Z,-2.30
2022-12-15T17:57:14.729Z,-2.40
2022-12-15T17:59:42.697Z,-2.40
2022-12-15T18:02:14.937Z,-2.30
2022-12-15T18:04:43.822Z,-2.20
2022-12-15T18:07:18.002Z,-2.20
2022-12-15T18:09:46.299Z,-2.20
2022-12-15T18:12:24.372Z,-2.30
2022-12-15T18:14:53.239Z,-2.30
2022-12-15T18:17:21.844Z,-2.30
2022-12-15T18:19:53.891Z,-2.40
2022-12-15T18:22:24.035Z,-2.40
2022-12-15T18:24:54.290Z,-2.50
2022-12-15T18:27:26.485Z,-2.40
2022-12-15T18:29:54.918Z,-2.30
2022-12-15T18:32:25.749Z,-2.30
2022-12-15T18:34:55.171Z,-2.30
2022-12-15T18:37:25.747Z,-2.30
2022-12-15T18:39:58.251Z,-2.40
2022-12-15T18:42:32.083Z,-2.30
2022-12-15T18:45:02.251Z,-2.30
2022-12-15T18:47:30.268Z,-2.30
2022-12-15T18:49:58.322Z,-2.40
2022-12-15T18:52:31.461Z,-2.20
2022-12-15T18:55:03.221Z,-2.40
2022-12-15T18:57:36.550Z,-2.40
2022-12-15T19:00:17.273Z,-2.30
2022-12-15T19:02:45.812Z,-2.30
2022-12-15T19:05:33.413Z,-2.30
2022-12-15T19:08:04.267Z,-2.40
2022-12-15T19:10:35.138Z,-2.40
2022-12-15T19:13:04.614Z,-2.40
2022-12-15T19:15:32.562Z,-2.30
2022-12-15T19:18:17.962Z,-2.50
2022-12-15T19:21:03.657Z,-2.90
2022-12-15T19:23:31.912Z,-2.90
2022-12-15T19:26:00.303Z,-2.90
2022-12-15T19:28:29.570Z,-2.80
2022-12-15T19:30:57.470Z,-2.70
2022-12-15T19:33:25.573Z,-2.70
2022-12-15T19:35:55.423Z,-2.70
2022-12-15T19:38:27.273Z,-2.60
2022-12-15T19:40:56.461Z,-2.50
2022-12-15T19:43:25.194Z,-2.60
2022-12-15T19:45:55.074Z,-2.90
2022-12-15T19:48:24.264Z,-2.90
2022-12-15T19:50:54.990Z,-2.70
2022-12-15T19:53:26.726Z,-2.80
2022-12-15T19:55:56.420Z,-2.60
2022-12-15T19:58:29.767Z,-2.50
2022-12-15T20:01:00.629Z,-2.40
2022-12-15T20:03:30.605Z,-2.40
2022-12-15T20:06:00.099Z,-2.40
2022-12-15T20:08:30.327Z,-2.30
2022-12-15T20:10:58.302Z,-2.20
2022-12-15T20:13:26.973Z,-2.30
2022-12-15T20:15:55.336Z,-2.30
2022-12-15T20:18:24.577Z,-2.20
2022-12-15T20:20:52.600Z,-2.40
2022-12-15T20:23:23.620Z,-2.60
2022-12-15T20:25:51.640Z,-2.40
2022-12-15T20:28:21.989Z,-2.40
2022-12-15T20:30:50.620Z,-2.40
2022-12-15T20:33:18.905Z,-2.30
2022-12-15T20:35:50.270Z,-2.40
2022-12-15T20:38:24.488Z,-2.30
2022-12-15T20:40:53.260Z,-2.40
2022-12-15T20:43:22.586Z,-2.40
2022-12-15T20:45:58.098Z,-2.50
2022-12-15T20:48:26.840Z,-2.60
2022-12-15T20:50:56.381Z,-2.40
2022-12-15T20:53:26.401Z,-2.30
2022-12-15T20:55:56.174Z,-2.30
2022-12-15T20:58:29.734Z,-2.30
2022-12-15T21:01:01.100Z,-2.40
2022-12-15T21:03:31.851Z,-2.40
2022-12-15T21:06:01.518Z,-2.60
2022-12-15T21:08:31.500Z,-2.80
2022-12-15T21:11:03.054Z,-2.70
2022-12-15T21:13:35.335Z,-2.80
2022-12-15T21:16:03.643Z,-2.60
2022-12-15T21:21:26.651Z,-2.60
2022-12-15T21:23:55.408Z,-2.80
2022-12-15T21:26:24.956Z,-2.80
2022-12-15T21:28:56.904Z,-3.10
2022-12-15T21:31:25.221Z,-3.10
2022-12-15T21:33:53.380Z,-3.00
2022-12-15T21:36:24.194Z,-2.80
2022-12-15T21:38:53.242Z,-3.00
2022-12-15T21:41:24.546Z,-2.90
2022-12-15T21:43:52.694Z,-2.90
2022-12-15T21:46:28.837Z,-2.80
2022-12-15T21:49:14.879Z,-2.60
2022-12-15T21:51:47.745Z,-2.50
2022-12-15T21:54:19.226Z,-2.60
2022-12-15T21:56:48.460Z,-2.50
2022-12-15T21:59:18.296Z,-2.50
2022-12-15T22:01:46.367Z,-2.60
2022-12-15T22:04:18.943Z,-2.80
2022-12-15T22:06:50.941Z,-3.10
2022-12-15T22:09:19.494Z,-3.00
2022-12-15T22:11:49.744Z,-3.00
2022-12-15T22:14:24.633Z,-3.00
2022-12-15T22:16:52.892Z,-2.80
2022-12-15T22:19:21.025Z,-2.70
2022-12-15T22:21:50.393Z,-2.50
2022-12-15T22:24:18.741Z,-2.90
2022-12-15T22:26:47.749Z,-3.00
2022-12-15T22:29:18.448Z,-3.10
2022-12-15T22:31:46.852Z,-3.10
2022-12-15T22:34:16.853Z,-3.10
2022-12-15T22:36:44.783Z,-3.00
2022-12-15T22:39:14.905Z,-3.00
2022-12-15T22:41:45.279Z,-3.20
2022-12-15T22:44:18.164Z,-3.10
2022-12-15T22:46:46.465Z,-2.80
2022-12-15T22:49:16.636Z,-2.80
2022-12-15T22:51:44.670Z,-2.80
2022-12-15T22:54:19.218Z,-2.70
2022-12-15T22:56:49.644Z,-2.60
2022-12-15T22:59:25.158Z,-2.60
2022-12-15T23:01:53.110Z,-2.70
2022-12-15T23:04:23.095Z,-2.70
2022-12-15T23:06:51.683Z,-2.70
2022-12-15T23:09:21.153Z,-2.60
2022-12-15T23:11:48.314Z,-2.50
2022-12-15T23:14:17.929Z,-2.70
2022-12-15T23:16:46.195Z,-2.60
2022-12-15T23:19:23.693Z,-2.70
2022-12-15T23:21:51.910Z,-2.60
2022-12-15T23:24:21.210Z,-2.60
2022-12-15T23:26:49.120Z,-2.50
2022-12-15T23:29:17.526Z,-2.50
2022-12-15T23:31:45.586Z,-2.50
2022-12-15T23:34:13.682Z,-2.40
2022-12-15T23:36:41.603Z,-2.50
2022-12-15T23:39:09.537Z,-2.50
2022-12-15T23:41:38.814Z,-2.40
2022-12-15T23:44:06.979Z,-2.40
2022-12-15T23:46:34.946Z,-2.40
2022-12-15T23:49:02.897Z,-2.40
2022-12-15T23:51:30.809Z,-2.40
2022-12-15T23:53:58.703Z,-2.40
2022-12-15T23:56:27.103Z,-2.40
2022-12-15T23:58:59.044Z,-2.40
